Hauptseite
METAR-TAF:

METAR-TAF

Flughäfen :

Flughafen Kuwait

Kuwait-Stadt, Kuwait

Breite: 29-13N, Länge: 047-59E, Höhe: 55 m

Beobachtung

Neuester Wetterbericht von vor 13 Minuten, um 10:00 UTC
Wind 11 kt aus Nord
Temperatur 44°C
Luftfeuchtigkeit 13%
Luftdruck 1000 hPa
Sichtweite: 8000 m
Himmel klar

METAR: OKBK 161000Z 35011KT 8000 SKC 44/09 Q1000 NOSIG

Zeit: 13:13 (10:13 UTC)

Prognose

Neuester Wetterbericht von vor 5 Stunden und 28 Minuten, um 04:45 UTC
Gültige Prognose vom 16 um 06 UTC bis 17 um 12 UTC
Wind 11 kt aus Nord/Nordwest
Sichtweite: 7000 m
Zeitweise
vom 16 um 06 UTC bis 16 um 18 UTC
Wind 3 kt aus unterschiedlichen Richtungen
Sichtweite: 4000 m
trockener Dunst

TAF: OKBK 160445Z 1606/1712 33011KT 7000 NSC TEMPO 1606/1618 VRB03KT 4000 HZ

Wetterbeobachtungen und Prognosen von mehr als 4000 Flughäfen (METAR und TAF Bericht).

Die verfügbaren Stationen werden durch gelbe und rote Markierungen auf der Karte dargestellt.

Führen Sie die Maus auf sie, um den Namen der Station zu sehen.

Darauf klicken, um die Beobachtung von Wetterbeobachtungen und Prognosen zu sehen.

Um die Karte zu ändern : klicken Sie auf den grünen Tasten mit einem schwarzen Kreuz Zum Vergrößern, auf den grünen Button mit einem Gedankenstrich zu verkleinern, oder auf die grünen Pfeile für benachbarte Karten.


METAR-TAF: